createdAt,value
2023-05-01T00:00:11.887Z,0
2023-05-01T00:01:12.071Z,0
2023-05-01T00:02:12.320Z,0
2023-05-01T00:03:12.691Z,0
2023-05-01T00:04:13.271Z,0
2023-05-01T00:05:14.088Z,0
2023-05-01T00:06:14.335Z,0
2023-05-01T00:07:14.668Z,0
2023-05-01T00:08:14.886Z,0
2023-05-01T00:09:15.061Z,0
2023-05-01T00:10:15.224Z,0
2023-05-01T00:11:15.419Z,0
2023-05-01T00:12:15.636Z,0
2023-05-01T00:13:15.830Z,0
2023-05-01T00:14:15.999Z,0
2023-05-01T00:15:16.250Z,0
2023-05-01T00:16:16.496Z,0
2023-05-01T00:17:16.787Z,0
2023-05-01T00:18:17.036Z,0
2023-05-01T00:19:17.395Z,0
2023-05-01T00:20:17.570Z,0
2023-05-01T00:21:17.728Z,0
2023-05-01T00:22:17.891Z,0
2023-05-01T00:23:18.046Z,0
2023-05-01T00:24:18.215Z,0
2023-05-01T00:25:18.396Z,0
2023-05-01T00:26:18.560Z,0
2023-05-01T00:27:18.719Z,0
2023-05-01T00:28:18.873Z,0
2023-05-01T00:29:19.037Z,0
2023-05-01T00:30:19.203Z,0
2023-05-01T00:31:19.409Z,0
2023-05-01T00:32:19.764Z,0
2023-05-01T00:33:20.136Z,0
2023-05-01T00:34:20.494Z,0
2023-05-01T00:35:20.698Z,0
2023-05-01T00:36:20.883Z,0
2023-05-01T00:37:21.078Z,0
2023-05-01T00:38:21.242Z,0
2023-05-01T00:39:21.417Z,0
2023-05-01T00:40:21.576Z,0
2023-05-01T00:41:21.753Z,0
2023-05-01T00:42:21.930Z,0
2023-05-01T00:43:22.108Z,0
2023-05-01T00:44:22.279Z,0
2023-05-01T00:45:22.454Z,0
2023-05-01T00:46:22.699Z,0
2023-05-01T00:47:22.985Z,0
2023-05-01T00:48:23.267Z,0
2023-05-01T00:49:23.440Z,0
2023-05-01T00:50:23.583Z,0
2023-05-01T00:51:23.746Z,0
2023-05-01T00:52:23.914Z,0
2023-05-01T00:53:24.076Z,0
2023-05-01T00:54:24.295Z,0
2023-05-01T00:55:24.461Z,0
2023-05-01T00:56:24.637Z,0
2023-05-01T00:57:24.859Z,0
2023-05-01T00:58:25.148Z,0
2023-05-01T00:59:25.348Z,0
2023-05-01T01:00:25.582Z,0
2023-05-01T01:01:25.750Z,0
2023-05-01T01:02:26.126Z,0
2023-05-01T01:03:26.329Z,0
2023-05-01T01:04:26.523Z,0
2023-05-01T01:05:26.802Z,0
2023-05-01T01:06:27.000Z,0
2023-05-01T01:07:27.275Z,0
2023-05-01T01:08:27.441Z,0
2023-05-01T01:09:27.611Z,0
2023-05-01T01:10:27.772Z,0
2023-05-01T01:11:27.933Z,0
2023-05-01T01:12:28.123Z,0
2023-05-01T01:13:28.305Z,0
2023-05-01T01:14:28.469Z,0
2023-05-01T01:15:28.664Z,0
2023-05-01T01:16:28.865Z,0
2023-05-01T01:17:29.342Z,0
2023-05-01T01:18:29.677Z,0
2023-05-01T01:19:29.857Z,0
2023-05-01T01:20:30.011Z,0
2023-05-01T01:21:30.179Z,0
2023-05-01T01:22:30.335Z,0
2023-05-01T01:23:30.523Z,0
2023-05-01T01:24:30.731Z,0
2023-05-01T01:25:30.923Z,0
2023-05-01T01:26:31.113Z,0
2023-05-01T01:27:31.264Z,0
2023-05-01T01:28:31.412Z,0
2023-05-01T01:29:31.561Z,0
2023-05-01T01:30:31.732Z,0
2023-05-01T01:31:31.956Z,0
2023-05-01T01:32:32.221Z,0
2023-05-01T01:33:32.482Z,0
2023-05-01T01:34:32.640Z,0
2023-05-01T01:35:32.810Z,0
2023-05-01T01:36:32.961Z,0
2023-05-01T01:37:33.136Z,0
2023-05-01T01:38:33.340Z,0
2023-05-01T01:39:33.502Z,0
2023-05-01T01:40:33.664Z,0
2023-05-01T01:41:33.829Z,0
2023-05-01T01:42:33.998Z,0
2023-05-01T01:43:34.163Z,0
2023-05-01T01:44:34.305Z,0
2023-05-01T01:45:34.465Z,0
2023-05-01T01:46:34.678Z,0
2023-05-01T01:47:34.991Z,0
2023-05-01T01:48:35.282Z,0
2023-05-01T01:49:35.447Z,0
2023-05-01T01:50:35.619Z,0
2023-05-01T01:51:35.791Z,0
2023-05-01T01:52:35.945Z,0
2023-05-01T01:53:36.116Z,0
2023-05-01T01:54:36.273Z,0
2023-05-01T01:55:36.436Z,0
2023-05-01T01:56:36.593Z,0
2023-05-01T01:57:36.742Z,0
2023-05-01T01:58:36.910Z,0
2023-05-01T01:59:37.096Z,0
2023-05-01T02:00:37.286Z,0
2023-05-01T02:01:37.528Z,0
2023-05-01T02:02:37.869Z,0
2023-05-01T02:03:38.402Z,0
2023-05-01T02:04:39.223Z,0
2023-05-01T02:05:39.392Z,0
2023-05-01T02:06:39.599Z,0
2023-05-01T02:07:39.891Z,0
2023-05-01T02:08:40.056Z,0
2023-05-01T02:09:40.226Z,0
2023-05-01T02:10:40.393Z,0
2023-05-01T02:11:40.548Z,0
2023-05-01T02:12:40.692Z,0
2023-05-01T02:13:40.851Z,0
2023-05-01T02:14:41.033Z,0
2023-05-01T02:15:41.333Z,0
2023-05-01T02:16:42.081Z,0
2023-05-01T02:17:42.864Z,0
2023-05-01T02:18:43.244Z,0
2023-05-01T02:19:43.408Z,0
2023-05-01T02:20:43.586Z,0
2023-05-01T02:21:43.755Z,0
2023-05-01T02:22:43.929Z,0
2023-05-01T02:23:44.113Z,0
2023-05-01T02:24:44.275Z,0
2023-05-01T02:25:44.413Z,0
2023-05-01T02:26:44.598Z,0
2023-05-01T02:27:44.743Z,0
2023-05-01T02:28:44.904Z,0
2023-05-01T02:29:45.059Z,0
2023-05-01T02:30:45.221Z,0
2023-05-01T02:31:45.442Z,0
2023-05-01T02:32:45.764Z,0
2023-05-01T02:33:46.092Z,0
2023-05-01T02:34:46.268Z,0
2023-05-01T02:35:46.427Z,0
2023-05-01T02:36:46.585Z,0
2023-05-01T02:37:46.750Z,0
2023-05-01T02:38:46.910Z,0
2023-05-01T02:39:47.106Z,0
2023-05-01T02:40:47.251Z,0
2023-05-01T02:41:47.438Z,0
2023-05-01T02:42:47.637Z,0
2023-05-01T02:43:47.795Z,0
2023-05-01T02:44:47.948Z,0
2023-05-01T02:45:48.212Z,0
2023-05-01T02:46:48.680Z,0
2023-05-01T02:47:48.962Z,0
2023-05-01T02:48:49.217Z,0
2023-05-01T02:49:49.380Z,0
2023-05-01T02:50:49.542Z,0
2023-05-01T02:51:49.752Z,0
2023-05-01T02:52:49.914Z,0
2023-05-01T02:53:50.058Z,0
2023-05-01T02:54:50.214Z,0
2023-05-01T02:55:50.373Z,0
2023-05-01T02:56:50.545Z,0
2023-05-01T02:57:50.715Z,0
2023-05-01T02:58:50.884Z,0
2023-05-01T02:59:51.062Z,0
2023-05-01T03:00:51.267Z,0
2023-05-01T03:01:51.814Z,0
2023-05-01T03:02:52.255Z,0
2023-05-01T03:03:52.754Z,0
2023-05-01T03:04:53.090Z,0
2023-05-01T03:05:53.250Z,0
2023-05-01T03:06:53.447Z,0
2023-05-01T03:07:53.689Z,0
2023-05-01T03:08:53.846Z,0
2023-05-01T03:09:54.156Z,0
2023-05-01T03:10:55.088Z,0
2023-05-01T03:11:55.329Z,0
2023-05-01T03:12:55.493Z,0
2023-05-01T03:13:55.686Z,0
2023-05-01T03:14:55.879Z,0
2023-05-01T03:15:56.091Z,0
2023-05-01T03:16:56.471Z,0
2023-05-01T03:17:56.761Z,0
2023-05-01T03:18:57.087Z,0
2023-05-01T03:19:57.404Z,0
2023-05-01T03:20:58.338Z,0
2023-05-01T03:21:58.492Z,0
2023-05-01T03:22:58.637Z,0
2023-05-01T03:23:58.816Z,0
2023-05-01T03:24:59.001Z,0
2023-05-01T03:25:59.154Z,0
2023-05-01T03:26:59.313Z,0
2023-05-01T03:27:59.481Z,0
2023-05-01T03:28:59.637Z,0
2023-05-01T03:29:59.825Z,0
2023-05-01T03:30:59.976Z,0
2023-05-01T03:32:00.257Z,0
2023-05-01T03:33:00.580Z,0
2023-05-01T03:34:00.888Z,0
2023-05-01T03:35:01.047Z,0
2023-05-01T03:36:01.382Z,0
2023-05-01T03:37:01.572Z,0
2023-05-01T03:38:01.780Z,0
2023-05-01T03:39:01.983Z,0
2023-05-01T03:40:02.146Z,0
2023-05-01T03:41:02.315Z,0
2023-05-01T03:42:02.493Z,0
2023-05-01T03:43:02.657Z,0
2023-05-01T03:44:02.838Z,0
2023-05-01T03:45:03.014Z,0
2023-05-01T03:46:03.206Z,0
2023-05-01T03:47:03.483Z,0
2023-05-01T03:48:03.698Z,0
2023-05-01T03:49:03.988Z,0
2023-05-01T03:50:04.163Z,0
2023-05-01T03:51:04.345Z,0
2023-05-01T03:52:04.524Z,0
2023-05-01T03:53:04.683Z,0
2023-05-01T03:54:04.854Z,0
2023-05-01T03:55:05.059Z,0
2023-05-01T03:56:05.230Z,0
2023-05-01T03:57:05.396Z,0
2023-05-01T03:58:05.612Z,1
2023-05-01T03:59:05.773Z,2
2023-05-01T04:00:05.967Z,3
2023-05-01T04:01:06.144Z,4
2023-05-01T04:02:06.341Z,4
2023-05-01T04:03:06.647Z,6
2023-05-01T04:04:07.379Z,8
2023-05-01T04:05:08.008Z,8
2023-05-01T04:06:08.173Z,11
2023-05-01T04:07:08.398Z,11
2023-05-01T04:08:08.696Z,11
2023-05-01T04:09:08.852Z,15
2023-05-01T04:10:09.017Z,15
2023-05-01T04:11:09.194Z,15
2023-05-01T04:12:09.350Z,20
2023-05-01T04:13:09.515Z,20
2023-05-01T04:14:09.666Z,26
2023-05-01T04:15:09.832Z,26
2023-05-01T04:16:10.076Z,34
2023-05-01T04:17:10.373Z,34
2023-05-01T04:18:10.598Z,45
2023-05-01T04:19:10.918Z,45
2023-05-01T04:20:11.180Z,59
2023-05-01T04:21:11.383Z,59
2023-05-01T04:22:11.545Z,77
2023-05-01T04:23:11.720Z,160
2023-05-01T04:24:11.885Z,160
2023-05-01T04:25:12.065Z,160
2023-05-01T04:26:12.231Z,160
2023-05-01T04:27:12.393Z,160
2023-05-01T04:28:12.582Z,160
2023-05-01T04:29:12.725Z,160
2023-05-01T04:30:12.912Z,160
2023-05-01T04:31:13.115Z,160
2023-05-01T04:32:13.438Z,209.92
2023-05-01T04:33:13.605Z,209.92
2023-05-01T04:34:13.794Z,209.92
2023-05-01T04:35:14.033Z,209.92
2023-05-01T04:36:14.209Z,209.92
2023-05-01T04:37:14.388Z,209.92
2023-05-01T04:38:14.576Z,209.92
2023-05-01T04:39:14.737Z,280
2023-05-01T04:40:14.910Z,280
2023-05-01T04:41:15.071Z,280
2023-05-01T04:42:15.210Z,280
2023-05-01T04:43:15.386Z,280
2023-05-01T04:44:15.542Z,280
2023-05-01T04:45:15.714Z,280
2023-05-01T04:46:15.922Z,280
2023-05-01T04:47:16.323Z,280
2023-05-01T04:48:16.545Z,280
2023-05-01T04:49:16.903Z,280
2023-05-01T04:50:17.066Z,280
2023-05-01T04:51:17.230Z,280
2023-05-01T04:52:17.405Z,280
2023-05-01T04:53:17.566Z,369.92
2023-05-01T04:54:17.734Z,369.92
2023-05-01T04:55:17.915Z,369.92
2023-05-01T04:56:18.068Z,369.92
2023-05-01T04:57:18.219Z,369.92
2023-05-01T04:58:18.394Z,369.92
2023-05-01T04:59:18.651Z,369.92
2023-05-01T05:00:18.810Z,369.92
2023-05-01T05:01:19.017Z,489.92
2023-05-01T05:02:19.405Z,489.92
2023-05-01T05:03:19.780Z,489.92
2023-05-01T05:04:20.344Z,489.92
2023-05-01T05:05:20.507Z,489.92
2023-05-01T05:06:20.676Z,489.92
2023-05-01T05:07:21.000Z,489.92
2023-05-01T05:08:21.186Z,640
2023-05-01T05:09:21.350Z,640
2023-05-01T05:10:21.528Z,640
2023-05-01T05:11:21.707Z,640
2023-05-01T05:12:21.869Z,640
2023-05-01T05:13:22.038Z,640
2023-05-01T05:14:22.203Z,640
2023-05-01T05:15:22.389Z,640
2023-05-01T05:16:22.579Z,640
2023-05-01T05:17:22.897Z,640
2023-05-01T05:18:23.114Z,640
2023-05-01T05:19:23.480Z,640
2023-05-01T05:20:23.641Z,640
2023-05-01T05:21:23.797Z,640
2023-05-01T05:22:23.962Z,640
2023-05-01T05:23:24.149Z,839.68
2023-05-01T05:24:24.317Z,839.68
2023-05-01T05:25:24.505Z,839.68
2023-05-01T05:26:24.683Z,839.68
2023-05-01T05:27:24.840Z,839.68
2023-05-01T05:28:24.995Z,839.68
2023-05-01T05:29:25.162Z,839.68
2023-05-01T05:30:25.364Z,1099.52
2023-05-01T05:31:25.532Z,1099.52
2023-05-01T05:32:25.852Z,1099.52
2023-05-01T05:33:26.645Z,1099.52
2023-05-01T05:34:26.827Z,1099.52
2023-05-01T05:35:27.003Z,1099.52
2023-05-01T05:36:27.152Z,1099.52
2023-05-01T05:37:27.309Z,1099.52
2023-05-01T05:38:27.462Z,1099.52
2023-05-01T05:39:27.633Z,1099.52
2023-05-01T05:40:27.793Z,1099.52
2023-05-01T05:41:27.950Z,1099.52
2023-05-01T05:42:28.117Z,1099.52
2023-05-01T05:43:28.411Z,1099.52
2023-05-01T05:44:28.588Z,1099.52
2023-05-01T05:45:28.759Z,1099.52
2023-05-01T05:46:28.923Z,1099.52
2023-05-01T05:47:29.184Z,1099.52
2023-05-01T05:48:29.403Z,1099.52
2023-05-01T05:49:29.737Z,1099.52
2023-05-01T05:50:29.901Z,1099.52
2023-05-01T05:51:30.091Z,1099.52
2023-05-01T05:52:30.248Z,1099.52
2023-05-01T05:53:30.398Z,1099.52
2023-05-01T05:54:30.558Z,1099.52
2023-05-01T05:55:30.731Z,1099.52
2023-05-01T05:56:30.912Z,1099.52
2023-05-01T05:57:31.098Z,1099.52
2023-05-01T05:58:31.266Z,1099.52
2023-05-01T05:59:31.427Z,1099.52
2023-05-01T06:00:31.587Z,1099.52
2023-05-01T06:01:31.851Z,1440
2023-05-01T06:02:32.059Z,1440
2023-05-01T06:03:32.787Z,1440
2023-05-01T06:04:33.355Z,1440
2023-05-01T06:05:33.585Z,1440
2023-05-01T06:06:33.976Z,1440
2023-05-01T06:07:34.263Z,1440
2023-05-01T06:08:34.419Z,1440
2023-05-01T06:09:34.582Z,1440
2023-05-01T06:10:34.738Z,1440
2023-05-01T06:11:34.902Z,1440
2023-05-01T06:12:37.012Z,1440
2023-05-01T06:13:49.708Z,1920
2023-05-01T06:14:49.932Z,1920
2023-05-01T06:15:50.245Z,1920
2023-05-01T06:16:50.578Z,1920
2023-05-01T06:17:50.821Z,1920
2023-05-01T06:18:51.076Z,1920
2023-05-01T06:19:51.227Z,1920
2023-05-01T06:20:51.389Z,1920
2023-05-01T06:21:51.558Z,2499.84
2023-05-01T06:22:51.775Z,2499.84
2023-05-01T06:23:51.940Z,2499.84
2023-05-01T06:24:52.102Z,2499.84
2023-05-01T06:25:52.283Z,2499.84
2023-05-01T06:26:52.460Z,2499.84
2023-05-01T06:27:52.630Z,2499.84
2023-05-01T06:28:52.791Z,2499.84
2023-05-01T06:29:52.966Z,2499.84
2023-05-01T06:30:53.379Z,2499.84
2023-05-01T06:31:53.693Z,2499.84
2023-05-01T06:32:54.018Z,2499.84
2023-05-01T06:33:54.282Z,2499.84
2023-05-01T06:34:54.518Z,3258.88
2023-05-01T06:35:54.708Z,3258.88
2023-05-01T06:36:54.875Z,3258.88
2023-05-01T06:37:55.039Z,3258.88
2023-05-01T06:38:55.199Z,3258.88
2023-05-01T06:39:55.584Z,3258.88
2023-05-01T06:40:56.585Z,3258.88
2023-05-01T06:41:56.804Z,3258.88
2023-05-01T06:42:56.963Z,3258.88
2023-05-01T06:43:57.121Z,3258.88
2023-05-01T06:44:57.284Z,3258.88
2023-05-01T06:45:57.454Z,3258.88
2023-05-01T06:46:57.658Z,3258.88
2023-05-01T06:47:57.952Z,3258.88
2023-05-01T06:48:58.268Z,3258.88
2023-05-01T06:49:58.583Z,3258.88
2023-05-01T06:50:59.291Z,3258.88
2023-05-01T06:51:59.472Z,3258.88
2023-05-01T06:52:59.626Z,4239.36
2023-05-01T06:53:59.792Z,4239.36
2023-05-01T06:54:59.961Z,4239.36
2023-05-01T06:56:00.130Z,4239.36
2023-05-01T06:57:00.301Z,4239.36
2023-05-01T06:58:02.611Z,4239.36
2023-05-01T06:59:23.624Z,4579.84
2023-05-01T07:00:23.802Z,4579.84
2023-05-01T07:01:23.974Z,4579.84
2023-05-01T07:02:24.351Z,4579.84
2023-05-01T07:03:24.705Z,4579.84
2023-05-01T07:04:24.999Z,4579.84
2023-05-01T07:05:25.161Z,4579.84
2023-05-01T07:06:25.378Z,4579.84
2023-05-01T07:07:25.634Z,4579.84
2023-05-01T07:08:25.792Z,4579.84
2023-05-01T07:09:25.958Z,4579.84
2023-05-01T07:10:26.183Z,4579.84
2023-05-01T07:11:26.516Z,4579.84
2023-05-01T07:12:26.681Z,4579.84
2023-05-01T07:13:26.888Z,4579.84
2023-05-01T07:14:27.039Z,4579.84
2023-05-01T07:15:27.215Z,4579.84
2023-05-01T07:16:27.435Z,4579.84
2023-05-01T07:17:27.931Z,4579.84
2023-05-01T07:18:28.151Z,4579.84
2023-05-01T07:19:28.316Z,4579.84
2023-05-01T07:20:28.481Z,4579.84
2023-05-01T07:21:28.650Z,4579.84
2023-05-01T07:22:28.813Z,4579.84
2023-05-01T07:23:29.016Z,4579.84
2023-05-01T07:24:29.169Z,4579.84
2023-05-01T07:25:29.358Z,4579.84
2023-05-01T07:26:29.529Z,5539.84
2023-05-01T07:27:29.688Z,5539.84
2023-05-01T07:28:29.856Z,5539.84
2023-05-01T07:29:30.008Z,5539.84
2023-05-01T07:30:30.175Z,5539.84
2023-05-01T07:31:30.399Z,5539.84
2023-05-01T07:32:30.672Z,5539.84
2023-05-01T07:33:30.980Z,5539.84
2023-05-01T07:34:31.141Z,5539.84
2023-05-01T07:35:31.291Z,5539.84
2023-05-01T07:36:31.452Z,5539.84
2023-05-01T07:37:31.619Z,5539.84
2023-05-01T07:38:31.797Z,5539.84
2023-05-01T07:39:31.967Z,5539.84
2023-05-01T07:40:32.133Z,5539.84
2023-05-01T07:41:32.283Z,5539.84
2023-05-01T07:42:32.420Z,5539.84
2023-05-01T07:43:32.577Z,5539.84
2023-05-01T07:44:32.745Z,5539.84
2023-05-01T07:45:32.993Z,5539.84
2023-05-01T07:46:33.394Z,5539.84
2023-05-01T07:47:33.800Z,5539.84
2023-05-01T07:48:34.146Z,5539.84
2023-05-01T07:49:38.219Z,5539.84
2023-05-01T07:50:38.401Z,5539.84
2023-05-01T07:51:38.588Z,5539.84
2023-05-01T07:52:38.754Z,5539.84
2023-05-01T07:53:38.942Z,3857.92
2023-05-01T07:54:39.122Z,3857.92
2023-05-01T07:55:39.302Z,3857.92
2023-05-01T07:56:39.488Z,3857.92
2023-05-01T07:57:39.684Z,3857.92
2023-05-01T07:58:39.856Z,3857.92
2023-05-01T07:59:40.016Z,3857.92
2023-05-01T08:00:40.174Z,3857.92
2023-05-01T08:01:40.325Z,3857.92
2023-05-01T08:02:40.547Z,2698.24
2023-05-01T08:03:41.175Z,2698.24
2023-05-01T08:04:41.894Z,2698.24
2023-05-01T08:05:42.340Z,2698.24
2023-05-01T08:06:42.558Z,3537.92
2023-05-01T08:07:42.812Z,3537.92
2023-05-01T08:08:42.987Z,3537.92
2023-05-01T08:09:43.158Z,4618.24
2023-05-01T08:10:43.322Z,4618.24
2023-05-01T08:11:43.472Z,4618.24
2023-05-01T08:12:43.612Z,4618.24
2023-05-01T08:13:43.782Z,4618.24
2023-05-01T08:14:43.958Z,4618.24
2023-05-01T08:15:44.132Z,4618.24
2023-05-01T08:16:44.403Z,4618.24
2023-05-01T08:17:45.162Z,4618.24
2023-05-01T08:18:45.458Z,4618.24
2023-05-01T08:19:45.620Z,4618.24
2023-05-01T08:20:45.783Z,4618.24
2023-05-01T08:21:45.936Z,6077.44
2023-05-01T08:22:46.099Z,6077.44
2023-05-01T08:23:46.266Z,6077.44
2023-05-01T08:24:46.479Z,6077.44
2023-05-01T08:25:46.654Z,6077.44
2023-05-01T08:26:46.852Z,6077.44
2023-05-01T08:27:47.030Z,6077.44
2023-05-01T08:28:47.199Z,6077.44
2023-05-01T08:29:47.362Z,6077.44
2023-05-01T08:30:47.580Z,6077.44
2023-05-01T08:31:47.793Z,6077.44
2023-05-01T08:32:48.209Z,6077.44
2023-05-01T08:33:48.508Z,6077.44
2023-05-01T08:34:48.671Z,6077.44
2023-05-01T08:35:48.852Z,6077.44
2023-05-01T08:36:49.041Z,6077.44
2023-05-01T08:37:49.222Z,6077.44
2023-05-01T08:38:49.393Z,6077.44
2023-05-01T08:39:49.547Z,6077.44
2023-05-01T08:40:49.696Z,6077.44
2023-05-01T08:41:49.856Z,6077.44
2023-05-01T08:42:50.023Z,6077.44
2023-05-01T08:43:50.193Z,6077.44
2023-05-01T08:44:50.342Z,6077.44
2023-05-01T08:45:50.679Z,6077.44
2023-05-01T08:46:50.906Z,6077.44
2023-05-01T08:47:51.354Z,6077.44
2023-05-01T08:48:51.692Z,6077.44
2023-05-01T08:49:51.877Z,6077.44
2023-05-01T08:50:52.093Z,6077.44
2023-05-01T08:51:52.237Z,6077.44
2023-05-01T08:52:52.409Z,6077.44
2023-05-01T08:53:52.565Z,6077.44
2023-05-01T08:54:52.755Z,6077.44
2023-05-01T08:55:52.923Z,6077.44
2023-05-01T08:56:53.074Z,6077.44
2023-05-01T08:57:53.236Z,6077.44
2023-05-01T08:58:53.421Z,6077.44
2023-05-01T08:59:53.678Z,6077.44
2023-05-01T09:00:54.344Z,6077.44
2023-05-01T09:01:54.535Z,6077.44
2023-05-01T09:02:54.869Z,6077.44
2023-05-01T09:03:55.259Z,6077.44
2023-05-01T09:04:55.564Z,6077.44
2023-05-01T09:05:55.717Z,6077.44
2023-05-01T09:06:55.903Z,6077.44
2023-05-01T09:07:56.085Z,6077.44
2023-05-01T09:08:56.243Z,6077.44
2023-05-01T09:09:56.574Z,6077.44
2023-05-01T09:10:57.563Z,6077.44
2023-05-01T09:11:57.718Z,6077.44
2023-05-01T09:12:57.869Z,6077.44
2023-05-01T09:13:58.034Z,6077.44
2023-05-01T09:14:58.196Z,6077.44
2023-05-01T09:15:58.370Z,6077.44
2023-05-01T09:16:58.637Z,6077.44
2023-05-01T09:18:00.207Z,6077.44
2023-05-01T09:19:04.288Z,6978.56
2023-05-01T09:20:04.643Z,6978.56
2023-05-01T09:21:04.889Z,6978.56
2023-05-01T09:22:05.058Z,6978.56
2023-05-01T09:23:05.255Z,6978.56
2023-05-01T09:24:05.448Z,6978.56
2023-05-01T09:25:05.614Z,6978.56
2023-05-01T09:26:05.802Z,6978.56
2023-05-01T09:27:05.997Z,6978.56
2023-05-01T09:28:06.164Z,6978.56
2023-05-01T09:29:06.341Z,6978.56
2023-05-01T09:30:06.500Z,6978.56
2023-05-01T09:31:06.662Z,6978.56
2023-05-01T09:32:06.865Z,6978.56
2023-05-01T09:33:07.226Z,6978.56
2023-05-01T09:34:07.655Z,6978.56
2023-05-01T09:35:07.827Z,6978.56
2023-05-01T09:36:07.990Z,6978.56
2023-05-01T09:37:08.149Z,6978.56
2023-05-01T09:38:08.297Z,6978.56
2023-05-01T09:39:08.459Z,6978.56
2023-05-01T09:40:08.669Z,6978.56
2023-05-01T09:41:08.998Z,9159.68
2023-05-01T09:42:09.157Z,9159.68
2023-05-01T09:43:11.191Z,9159.68
2023-05-01T09:44:12.204Z,9159.68
2023-05-01T09:45:12.396Z,9159.68
2023-05-01T09:46:12.596Z,9159.68
2023-05-01T09:47:12.896Z,9159.68
2023-05-01T09:48:13.079Z,9159.68
2023-05-01T09:49:13.367Z,9159.68
2023-05-01T09:50:13.548Z,9159.68
2023-05-01T09:51:13.716Z,9159.68
2023-05-01T09:52:13.904Z,9159.68
2023-05-01T09:53:14.102Z,9159.68
2023-05-01T09:54:14.270Z,11991.04
2023-05-01T09:55:14.419Z,11991.04
2023-05-01T09:56:14.608Z,11991.04
2023-05-01T09:57:14.862Z,11991.04
2023-05-01T09:58:15.039Z,11991.04
2023-05-01T09:59:15.200Z,11991.04
2023-05-01T10:00:15.378Z,11991.04
2023-05-01T10:01:15.623Z,11991.04
2023-05-01T10:02:15.922Z,11991.04
2023-05-01T10:03:16.324Z,11991.04
2023-05-01T10:04:16.837Z,11991.04
2023-05-01T10:05:17.030Z,11991.04
2023-05-01T10:06:17.238Z,11991.04
2023-05-01T10:07:17.527Z,11991.04
2023-05-01T10:08:17.730Z,11991.04
2023-05-01T10:09:17.940Z,15595.52
2023-05-01T10:10:18.165Z,15595.52
2023-05-01T10:11:18.918Z,15595.52
2023-05-01T10:12:19.100Z,15595.52
2023-05-01T10:13:19.252Z,15595.52
2023-05-01T10:14:19.420Z,15595.52
2023-05-01T10:15:25.206Z,15595.52
2023-05-01T10:16:27.391Z,15390.72
2023-05-01T10:17:27.900Z,15390.72
2023-05-01T10:18:28.154Z,15390.72
2023-05-01T10:19:28.328Z,15390.72
2023-05-01T10:20:28.490Z,15390.72
2023-05-01T10:21:28.647Z,15390.72
2023-05-01T10:22:28.825Z,15390.72
2023-05-01T10:23:28.998Z,15390.72
2023-05-01T10:24:29.258Z,15390.72
2023-05-01T10:25:29.430Z,15390.72
2023-05-01T10:26:29.598Z,15390.72
2023-05-01T10:27:29.762Z,15390.72
2023-05-01T10:28:29.916Z,15390.72
2023-05-01T10:29:30.082Z,15390.72
2023-05-01T10:30:30.251Z,15390.72
2023-05-01T10:31:30.472Z,15390.72
2023-05-01T10:32:30.830Z,15390.72
2023-05-01T10:33:31.113Z,15390.72
2023-05-01T10:34:31.305Z,15390.72
2023-05-01T10:35:31.460Z,15390.72
2023-05-01T10:36:31.649Z,15390.72
2023-05-01T10:37:31.849Z,15390.72
2023-05-01T10:38:32.000Z,15390.72
2023-05-01T10:39:32.153Z,15390.72
2023-05-01T10:40:32.412Z,15390.72
2023-05-01T10:41:32.611Z,15390.72
2023-05-01T10:42:32.782Z,15390.72
2023-05-01T10:43:32.983Z,15390.72
2023-05-01T10:44:33.164Z,15390.72
2023-05-01T10:45:34.585Z,15390.72
2023-05-01T10:46:36.211Z,15390.72
2023-05-01T10:47:36.523Z,15390.72
2023-05-01T10:48:36.808Z,15390.72
2023-05-01T10:49:36.964Z,10792.96
2023-05-01T10:50:37.138Z,10792.96
2023-05-01T10:51:37.302Z,10792.96
2023-05-01T10:52:37.462Z,10792.96
2023-05-01T10:53:37.645Z,7516.16
2023-05-01T10:54:37.817Z,7516.16
2023-05-01T10:55:37.979Z,7516.16
2023-05-01T10:56:38.135Z,7516.16
2023-05-01T10:57:38.318Z,7516.16
2023-05-01T10:58:38.468Z,7516.16
2023-05-01T10:59:38.725Z,7516.16
2023-05-01T11:00:38.877Z,7516.16
2023-05-01T11:01:39.066Z,7516.16
2023-05-01T11:02:39.327Z,7516.16
2023-05-01T11:03:39.684Z,7516.16
2023-05-01T11:04:39.856Z,7516.16
2023-05-01T11:05:40.063Z,7516.16
2023-05-01T11:06:40.361Z,7516.16
2023-05-01T11:07:40.776Z,7516.16
2023-05-01T11:08:40.930Z,7516.16
2023-05-01T11:09:41.213Z,7516.16
2023-05-01T11:10:41.814Z,7516.16
2023-05-01T11:11:41.978Z,7516.16
2023-05-01T11:12:42.150Z,7516.16
2023-05-01T11:13:42.342Z,7516.16
2023-05-01T11:14:42.496Z,7516.16
2023-05-01T11:15:42.662Z,7516.16
2023-05-01T11:16:42.895Z,7516.16
2023-05-01T11:17:43.447Z,7516.16
2023-05-01T11:18:44.267Z,7516.16
2023-05-01T11:19:44.418Z,7516.16
2023-05-01T11:20:44.608Z,7516.16
2023-05-01T11:21:44.746Z,7516.16
2023-05-01T11:22:44.925Z,7516.16
2023-05-01T11:23:45.088Z,7516.16
2023-05-01T11:24:45.235Z,7516.16
2023-05-01T11:25:45.416Z,7516.16
2023-05-01T11:26:45.580Z,7516.16
2023-05-01T11:27:45.752Z,7516.16
2023-05-01T11:28:45.922Z,7516.16
2023-05-01T11:29:46.082Z,7516.16
2023-05-01T11:30:46.260Z,7516.16
2023-05-01T11:31:46.442Z,7516.16
2023-05-01T11:32:46.701Z,7516.16
2023-05-01T11:33:47.072Z,7516.16
2023-05-01T11:34:47.218Z,7516.16
2023-05-01T11:35:47.377Z,7516.16
2023-05-01T11:36:47.532Z,7516.16
2023-05-01T11:37:47.703Z,7516.16
2023-05-01T11:38:47.893Z,7516.16
2023-05-01T11:39:48.058Z,7516.16
2023-05-01T11:40:48.210Z,7516.16
2023-05-01T11:41:48.390Z,7516.16
2023-05-01T11:42:48.725Z,7516.16
2023-05-01T11:43:48.942Z,7516.16
2023-05-01T11:44:49.112Z,7516.16
2023-05-01T11:45:49.318Z,7516.16
2023-05-01T11:46:49.541Z,7516.16
2023-05-01T11:47:49.826Z,7516.16
2023-05-01T11:48:50.299Z,7516.16
2023-05-01T11:49:50.450Z,7516.16
2023-05-01T11:50:50.627Z,7516.16
2023-05-01T11:51:50.782Z,7516.16
2023-05-01T11:52:50.947Z,7516.16
2023-05-01T11:53:51.110Z,8156.16
2023-05-01T11:54:51.267Z,8156.16
2023-05-01T11:55:51.426Z,8156.16
2023-05-01T11:56:51.600Z,8156.16
2023-05-01T11:57:51.757Z,8156.16
2023-05-01T11:58:51.962Z,8156.16
2023-05-01T11:59:52.153Z,8156.16
2023-05-01T12:00:52.454Z,8156.16
2023-05-01T12:01:52.667Z,8156.16
2023-05-01T12:02:53.212Z,8156.16
2023-05-01T12:03:53.859Z,8156.16
2023-05-01T12:04:54.440Z,8156.16
2023-05-01T12:05:54.929Z,10792.96
2023-05-01T12:06:55.134Z,10792.96
2023-05-01T12:07:55.548Z,10792.96
2023-05-01T12:08:55.710Z,10792.96
2023-05-01T12:09:55.884Z,10792.96
2023-05-01T12:10:56.103Z,10792.96
2023-05-01T12:11:56.464Z,10792.96
2023-05-01T12:12:56.629Z,10792.96
2023-05-01T12:13:56.806Z,10792.96
2023-05-01T12:14:57.129Z,10792.96
2023-05-01T12:15:58.071Z,10792.96
2023-05-01T12:16:58.263Z,10792.96
2023-05-01T12:17:58.589Z,14192.64
2023-05-01T12:18:58.881Z,14192.64
2023-05-01T12:19:59.069Z,14192.64
2023-05-01T12:20:59.265Z,14192.64
2023-05-01T12:21:59.417Z,14192.64
2023-05-01T12:22:59.586Z,14192.64
2023-05-01T12:23:59.747Z,14192.64
2023-05-01T12:25:00.026Z,14192.64
2023-05-01T12:26:00.976Z,18595.84
2023-05-01T12:27:01.160Z,18595.84
2023-05-01T12:28:01.339Z,18595.84
2023-05-01T12:29:01.499Z,18595.84
2023-05-01T12:30:01.674Z,24186.88
2023-05-01T12:31:04.206Z,24186.88
2023-05-01T12:32:05.816Z,26193.92
2023-05-01T12:33:06.126Z,26193.92
2023-05-01T12:34:06.493Z,26193.92
2023-05-01T12:35:06.702Z,32194.56
2023-05-01T12:36:06.875Z,32194.56
2023-05-01T12:37:07.036Z,32194.56
2023-05-01T12:38:07.203Z,46366.72
2023-05-01T12:39:07.369Z,46366.72
2023-05-01T12:40:07.604Z,46366.72
2023-05-01T12:41:08.084Z,46366.72
2023-05-01T12:42:08.265Z,46366.72
2023-05-01T12:43:08.421Z,46366.72
2023-05-01T12:44:08.571Z,46366.72
2023-05-01T12:45:08.723Z,31989.76
2023-05-01T12:46:08.910Z,31989.76
2023-05-01T12:47:09.104Z,22384.64
2023-05-01T12:48:09.289Z,22384.64
2023-05-01T12:49:09.590Z,22384.64
2023-05-01T12:50:09.739Z,22384.64
2023-05-01T12:51:09.891Z,15595.52
2023-05-01T12:52:10.093Z,15595.52
2023-05-01T12:53:10.260Z,15595.52
2023-05-01T12:54:10.435Z,15595.52
2023-05-01T12:55:10.581Z,15595.52
2023-05-01T12:56:10.732Z,15595.52
2023-05-01T12:57:10.887Z,15595.52
2023-05-01T12:58:11.054Z,15595.52
2023-05-01T12:59:11.259Z,10792.96
2023-05-01T13:00:11.413Z,10792.96